createdAt,value
2023-05-13T00:03:00.323Z,23.90
2023-05-13T00:08:07.117Z,23.90
2023-05-13T00:13:09.960Z,23.90
2023-05-13T00:18:14.164Z,23.90
2023-05-13T00:23:17.052Z,23.90
2023-05-13T00:28:21.150Z,23.90
2023-05-13T00:33:25.464Z,24.00
2023-05-13T00:38:28.274Z,23.90
2023-05-13T00:43:31.225Z,23.90
2023-05-13T00:48:35.603Z,23.80
2023-05-13T00:53:38.601Z,23.80
2023-05-13T00:58:41.398Z,23.90
2023-05-13T01:03:52.445Z,23.90
2023-05-13T01:09:00.594Z,23.80
2023-05-13T01:14:08.695Z,23.80
2023-05-13T01:19:27.443Z,23.80
2023-05-13T01:24:31.671Z,23.90
2023-05-13T01:29:34.638Z,23.90
2023-05-13T01:34:38.112Z,23.90
2023-05-13T01:39:42.700Z,23.80
2023-05-13T01:44:45.517Z,23.80
2023-05-13T01:49:48.385Z,23.80
2023-05-13T01:54:53.097Z,23.90
2023-05-13T01:59:57.118Z,23.80
2023-05-13T02:05:00.008Z,23.80
2023-05-13T02:10:04.385Z,23.80
2023-05-13T02:15:08.127Z,23.80
2023-05-13T02:20:12.104Z,23.80
2023-05-13T02:25:16.328Z,23.80
2023-05-13T02:30:19.312Z,23.80
2023-05-13T02:35:25.655Z,23.80
2023-05-13T02:40:29.791Z,23.80
2023-05-13T02:45:32.636Z,23.70
2023-05-13T02:50:35.533Z,23.80
2023-05-13T02:55:39.739Z,23.80
2023-05-13T03:00:43.915Z,23.80
2023-05-13T03:05:46.759Z,23.80
2023-05-13T03:10:52.607Z,23.70
2023-05-13T03:15:55.492Z,23.80
2023-05-13T03:20:58.483Z,23.80
2023-05-13T03:26:03.460Z,23.70
2023-05-13T03:31:07.347Z,23.70
2023-05-13T03:36:10.346Z,23.70
2023-05-13T03:41:17.371Z,23.70
2023-05-13T03:46:20.271Z,23.70
2023-05-13T03:51:23.279Z,23.70
2023-05-13T03:56:27.488Z,23.70
2023-05-13T04:01:31.116Z,23.70
2023-05-13T04:06:33.925Z,23.70
2023-05-13T04:11:38.112Z,23.70
2023-05-13T04:16:40.974Z,23.70
2023-05-13T04:21:43.819Z,23.60
2023-05-13T04:26:48.056Z,23.70
2023-05-13T04:31:51.257Z,23.70
2023-05-13T04:36:54.064Z,23.70
2023-05-13T04:41:58.222Z,23.70
2023-05-13T04:47:01.070Z,23.70
2023-05-13T04:52:05.452Z,23.70
2023-05-13T04:57:09.622Z,23.70
2023-05-13T05:02:12.509Z,23.70
2023-05-13T05:07:15.434Z,23.70
2023-05-13T05:12:19.952Z,23.70
2023-05-13T05:17:22.888Z,23.70
2023-05-13T05:22:25.940Z,23.70
2023-05-13T05:27:30.152Z,23.60
2023-05-13T05:32:35.203Z,23.60
2023-05-13T05:37:38.197Z,23.70
2023-05-13T05:42:42.448Z,23.60
2023-05-13T05:47:45.705Z,23.60
2023-05-13T05:52:48.583Z,23.60
2023-05-13T05:57:52.778Z,23.60
2023-05-13T06:02:57.077Z,23.70
2023-05-13T06:07:59.973Z,23.60
2023-05-13T06:13:04.161Z,23.60
2023-05-13T06:18:07.013Z,23.60
2023-05-13T06:23:11.338Z,23.60
2023-05-13T06:28:15.575Z,23.60
2023-05-13T06:33:18.406Z,23.70
2023-05-13T06:38:21.227Z,23.60
2023-05-13T06:43:26.115Z,23.70
2023-05-13T06:48:30.019Z,23.60
2023-05-13T06:53:32.839Z,23.60
2023-05-13T06:58:37.036Z,23.70
2023-05-13T07:03:39.865Z,23.70
2023-05-13T07:08:42.734Z,23.60
2023-05-13T07:13:47.193Z,23.70
2023-05-13T07:18:51.056Z,23.70
2023-05-13T07:23:53.896Z,23.70
2023-05-13T07:29:01.557Z,23.70
2023-05-13T07:34:04.747Z,23.70
2023-05-13T07:39:08.607Z,23.80
2023-05-13T07:44:13.778Z,23.70
2023-05-13T07:49:16.571Z,23.70
2023-05-13T07:54:19.384Z,23.80
2023-05-13T07:59:23.526Z,23.80
2023-05-13T08:04:26.852Z,23.90
2023-05-13T08:09:29.860Z,23.80
2023-05-13T08:14:34.617Z,23.90
2023-05-13T08:19:37.480Z,23.80
2023-05-13T08:24:41.142Z,23.90
2023-05-13T08:29:45.306Z,23.90
2023-05-13T08:34:48.124Z,24.00
2023-05-13T08:39:50.998Z,24.00
2023-05-13T08:44:55.286Z,24.00
2023-05-13T08:50:00.365Z,24.10
2023-05-13T08:55:03.608Z,24.20
2023-05-13T09:00:09.249Z,24.10
2023-05-13T09:05:12.330Z,24.20
2023-05-13T09:10:15.288Z,24.20
2023-05-13T09:15:21.049Z,24.20
2023-05-13T09:20:25.454Z,24.20
2023-05-13T09:25:28.907Z,24.30
2023-05-13T09:30:34.865Z,24.30
2023-05-13T09:35:39.220Z,24.30
2023-05-13T09:40:42.313Z,24.30
2023-05-13T09:45:48.747Z,24.30
2023-05-13T09:50:52.043Z,24.40
2023-05-13T09:55:56.905Z,24.30
2023-05-13T10:01:01.218Z,24.40
2023-05-13T10:06:04.696Z,24.40
2023-05-13T10:11:07.972Z,24.30
2023-05-13T10:16:12.653Z,24.40
2023-05-13T10:21:15.554Z,24.40
2023-05-13T10:26:18.410Z,24.40
2023-05-13T10:31:22.620Z,24.40
2023-05-13T10:36:47.133Z,24.50
2023-05-13T10:42:32.906Z,24.50
2023-05-13T10:47:37.749Z,24.50
2023-05-13T10:52:44.970Z,24.50
2023-05-13T10:58:10.828Z,24.50
2023-05-13T11:03:17.307Z,24.50
2023-05-13T11:08:39.907Z,24.50
2023-05-13T11:13:42.714Z,24.50
2023-05-13T11:18:47.380Z,24.40
2023-05-13T11:23:54.598Z,24.50
2023-05-13T11:29:03.354Z,24.40
2023-05-13T11:34:15.693Z,24.40
2023-05-13T11:39:19.944Z,24.40
2023-05-13T11:44:25.363Z,24.40
2023-05-13T11:49:38.796Z,24.40
2023-05-13T11:54:43.905Z,24.40
2023-05-13T11:59:51.380Z,24.40
2023-05-13T12:04:55.980Z,24.50
2023-05-13T12:10:01.181Z,24.40
2023-05-13T12:15:05.910Z,24.40
2023-05-13T12:20:13.914Z,24.40
2023-05-13T12:25:45.458Z,24.50
2023-05-13T12:30:53.408Z,24.50
2023-05-13T12:36:18.760Z,24.50
2023-05-13T12:41:22.675Z,24.50
2023-05-13T12:46:26.177Z,24.60
2023-05-13T12:51:30.623Z,24.60
2023-05-13T12:56:33.425Z,24.60
2023-05-13T13:01:36.356Z,24.60
2023-05-13T13:06:40.901Z,24.60
2023-05-13T13:11:43.774Z,24.60
2023-05-13T13:16:46.821Z,24.50
2023-05-13T13:21:51.025Z,24.50
2023-05-13T13:26:54.488Z,24.40
2023-05-13T13:31:57.870Z,24.40
2023-05-13T13:37:02.049Z,24.40
2023-05-13T13:42:05.618Z,24.40
2023-05-13T13:47:08.497Z,24.40
2023-05-13T13:52:12.712Z,24.40
2023-05-13T13:57:16.651Z,24.50
2023-05-13T14:02:20.288Z,24.40
2023-05-13T14:07:24.471Z,24.40
2023-05-13T14:12:27.448Z,24.40
2023-05-13T14:17:30.324Z,24.40
2023-05-13T14:22:34.488Z,24.40
2023-05-13T14:27:37.456Z,24.40
2023-05-13T14:32:42.476Z,24.40
2023-05-13T14:37:46.727Z,24.40
2023-05-13T14:42:50.234Z,24.40
2023-05-13T14:47:53.965Z,24.50
2023-05-13T14:52:58.287Z,24.50
2023-05-13T14:58:01.239Z,24.40
2023-05-13T15:03:04.178Z,24.50
2023-05-13T15:08:10.783Z,24.80
2023-05-13T15:13:13.643Z,24.70
2023-05-13T15:18:17.145Z,24.60
2023-05-13T15:23:21.329Z,24.40
2023-05-13T15:28:24.169Z,24.40
2023-05-13T15:33:27.377Z,24.40
2023-05-13T15:38:31.731Z,24.40
2023-05-13T15:43:34.578Z,24.30
2023-05-13T15:48:37.671Z,24.20
2023-05-13T15:53:41.910Z,24.20
2023-05-13T15:58:44.745Z,24.30
2023-05-13T16:03:47.652Z,24.20
2023-05-13T16:08:52.367Z,24.20
2023-05-13T16:13:56.522Z,24.20
2023-05-13T16:18:59.469Z,24.20
2023-05-13T16:24:03.718Z,24.30
2023-05-13T16:29:06.566Z,24.20
2023-05-13T16:34:09.417Z,24.20
2023-05-13T16:39:13.648Z,24.20
2023-05-13T16:44:16.536Z,24.30
2023-05-13T16:49:19.437Z,24.40
2023-05-13T16:54:24.241Z,26.40
2023-05-13T16:59:28.202Z,25.90
2023-05-13T17:04:31.042Z,25.30
2023-05-13T17:09:35.227Z,25.00
2023-05-13T17:14:38.060Z,25.00
2023-05-13T17:19:40.906Z,24.80
2023-05-13T17:24:45.077Z,24.70
2023-05-13T17:29:47.918Z,24.50
2023-05-13T17:34:50.741Z,24.50
2023-05-13T17:39:56.034Z,24.50
2023-05-13T17:44:59.092Z,24.40
2023-05-13T17:50:01.959Z,24.40
2023-05-13T17:55:07.380Z,24.40
2023-05-13T18:00:11.277Z,24.40
2023-05-13T18:05:14.320Z,24.30
2023-05-13T18:10:18.497Z,24.30
2023-05-13T18:15:21.866Z,24.30
2023-05-13T18:20:25.174Z,24.30
2023-05-13T18:25:32.179Z,24.20
2023-05-13T18:30:35.661Z,24.20
2023-05-13T18:35:39.956Z,24.20
2023-05-13T18:40:45.004Z,24.30
2023-05-13T18:45:47.860Z,24.10
2023-05-13T18:50:50.736Z,24.00
2023-05-13T18:55:55.031Z,24.10
2023-05-13T19:00:57.872Z,24.10
2023-05-13T19:06:00.717Z,24.10
2023-05-13T19:11:04.937Z,24.00
2023-05-13T19:16:07.903Z,24.00
2023-05-13T19:21:10.707Z,24.00
2023-05-13T19:26:14.943Z,23.90
2023-05-13T19:31:18.283Z,23.90
2023-05-13T19:36:22.092Z,23.90
2023-05-13T19:41:26.303Z,23.80
2023-05-13T19:46:29.205Z,23.90
2023-05-13T19:51:32.483Z,23.90
2023-05-13T19:56:36.728Z,23.90
2023-05-13T20:01:39.646Z,23.90
2023-05-13T20:06:42.497Z,23.80
2023-05-13T20:11:46.685Z,23.80
2023-05-13T20:16:49.643Z,23.80
2023-05-13T20:21:52.496Z,23.90
2023-05-13T20:26:56.894Z,23.80
2023-05-13T20:31:59.754Z,23.90
2023-05-13T20:37:02.800Z,23.80
2023-05-13T20:42:07.104Z,23.70
2023-05-13T20:47:10.254Z,23.70
2023-05-13T20:52:13.148Z,23.70
2023-05-13T20:57:17.290Z,23.70
2023-05-13T21:02:20.082Z,23.70
2023-05-13T21:07:22.952Z,23.70
2023-05-13T21:12:27.130Z,23.70
2023-05-13T21:17:30.079Z,23.70
2023-05-13T21:22:32.950Z,23.70
2023-05-13T21:27:37.091Z,23.70
2023-05-13T21:32:39.951Z,23.60
2023-05-13T21:37:43.200Z,23.60
2023-05-13T21:42:48.405Z,23.70
2023-05-13T21:47:51.296Z,23.60
2023-05-13T21:52:54.221Z,23.60
2023-05-13T21:57:58.361Z,23.70
2023-05-13T22:03:01.659Z,23.70
2023-05-13T22:08:04.875Z,23.60
2023-05-13T22:13:09.055Z,23.60
2023-05-13T22:18:12.002Z,23.60
2023-05-13T22:23:14.905Z,23.60
2023-05-13T22:28:19.139Z,23.60
2023-05-13T22:33:22.016Z,23.60
2023-05-13T22:38:25.237Z,23.50
2023-05-13T22:43:29.784Z,23.50
2023-05-13T22:48:32.647Z,23.50
2023-05-13T22:53:35.586Z,23.60
2023-05-13T22:58:40.613Z,23.50
2023-05-13T23:03:43.418Z,23.50
2023-05-13T23:08:46.698Z,23.60
2023-05-13T23:13:50.855Z,23.50
2023-05-13T23:18:53.724Z,23.50
2023-05-13T23:23:57.321Z,23.60
2023-05-13T23:29:02.771Z,23.50
2023-05-13T23:34:05.650Z,23.50
2023-05-13T23:39:09.654Z,23.50
2023-05-13T23:44:13.823Z,23.50
2023-05-13T23:49:16.802Z,23.50
2023-05-13T23:54:19.747Z,23.50
2023-05-13T23:59:23.912Z,23.60
